createdAt,value
2023-11-08T00:01:47.117Z,1.73
2023-11-08T00:04:15.583Z,1.33
2023-11-08T00:06:43.893Z,1.17
2023-11-08T00:09:11.200Z,1.20
2023-11-08T00:11:40.484Z,1.23
2023-11-08T00:14:10.257Z,1.30
2023-11-08T00:16:40.570Z,1.52
2023-11-08T00:19:10.488Z,1.65
2023-11-08T00:21:38.589Z,1.75
2023-11-08T00:24:06.077Z,1.52
2023-11-08T00:26:33.212Z,2.00
2023-11-08T00:29:00.583Z,1.27
2023-11-08T00:31:27.900Z,1.85
2023-11-08T00:33:55.936Z,2.15
2023-11-08T00:36:23.556Z,1.38
2023-11-08T00:38:50.779Z,1.48
2023-11-08T00:41:18.047Z,1.90
2023-11-08T00:43:46.182Z,1.27
2023-11-08T00:46:14.034Z,1.50
2023-11-08T00:48:41.377Z,1.30
2023-11-08T00:51:08.638Z,1.67
2023-11-08T00:53:35.822Z,1.30
2023-11-08T00:56:03.059Z,1.70
2023-11-08T00:58:31.415Z,3.10
2023-11-08T01:00:58.672Z,2.35
2023-11-08T01:03:33.733Z,2.45
2023-11-08T01:06:01.069Z,2.80
2023-11-08T01:08:28.291Z,2.92
2023-11-08T01:10:55.553Z,3.67
2023-11-08T01:13:22.881Z,3.22
2023-11-08T01:15:50.211Z,4.50
2023-11-08T01:18:18.335Z,2.92
2023-11-08T01:20:45.633Z,2.25
2023-11-08T01:23:13.126Z,2.50
2023-11-08T01:25:42.079Z,1.92
2023-11-08T01:28:09.395Z,1.90
2023-11-08T01:30:37.190Z,1.73
2023-11-08T01:33:04.456Z,1.50
2023-11-08T01:35:31.607Z,1.88
2023-11-08T01:37:58.782Z,1.30
2023-11-08T01:40:25.925Z,1.60
2023-11-08T01:42:53.110Z,1.50
2023-11-08T01:45:20.495Z,2.20
2023-11-08T01:47:50.236Z,1.90
2023-11-08T01:50:19.888Z,1.60
2023-11-08T01:52:47.231Z,1.20
2023-11-08T01:55:14.775Z,1.08
2023-11-08T01:57:42.031Z,1.00
2023-11-08T02:00:13.065Z,1.35
2023-11-08T02:02:41.428Z,1.77
2023-11-08T02:05:08.961Z,1.63
2023-11-08T02:07:36.337Z,1.40
2023-11-08T02:10:05.644Z,1.63
2023-11-08T02:12:33.928Z,1.33
2023-11-08T02:15:01.819Z,0.98
2023-11-08T02:17:29.539Z,0.85
2023-11-08T02:19:56.845Z,1.33
2023-11-08T02:22:24.706Z,1.30
2023-11-08T02:24:52.477Z,2.35
2023-11-08T02:27:19.744Z,1.20
2023-11-08T02:29:47.112Z,1.17
2023-11-08T02:32:14.290Z,1.10
2023-11-08T02:34:41.437Z,0.77
2023-11-08T02:37:08.971Z,1.27
2023-11-08T02:39:36.474Z,1.27
2023-11-08T02:42:03.850Z,1.52
2023-11-08T02:44:32.585Z,0.95
2023-11-08T02:46:59.894Z,1.30
2023-11-08T02:49:32.421Z,1.30
2023-11-08T02:51:59.764Z,1.20
2023-11-08T02:54:28.522Z,1.40
2023-11-08T02:56:55.805Z,1.10
2023-11-08T02:59:23.060Z,0.80
2023-11-08T03:01:50.242Z,1.05
2023-11-08T03:04:19.011Z,0.98
2023-11-08T03:06:46.842Z,0.77
2023-11-08T03:09:14.157Z,1.30
2023-11-08T03:11:41.421Z,1.77
2023-11-08T03:14:08.708Z,1.02
2023-11-08T03:16:36.679Z,1.05
2023-11-08T03:19:04.708Z,2.20
2023-11-08T03:21:32.062Z,1.13
2023-11-08T03:24:01.741Z,1.27
2023-11-08T03:26:29.940Z,1.17
2023-11-08T03:28:57.301Z,1.42
2023-11-08T03:31:24.510Z,1.33
2023-11-08T03:33:51.755Z,1.80
2023-11-08T03:36:18.974Z,1.60
2023-11-08T03:38:46.181Z,1.50
2023-11-08T03:41:13.316Z,0.93
2023-11-08T03:43:40.563Z,0.90
2023-11-08T03:46:07.765Z,0.73
2023-11-08T03:48:35.545Z,0.77
2023-11-08T03:51:04.175Z,1.38
2023-11-08T03:53:32.976Z,1.23
2023-11-08T03:56:00.144Z,1.58
2023-11-08T03:58:27.271Z,1.00
2023-11-08T04:00:54.481Z,0.85
2023-11-08T04:03:22.075Z,1.23
2023-11-08T04:05:49.317Z,0.95
2023-11-08T04:08:16.492Z,0.90
2023-11-08T04:10:43.715Z,1.00
2023-11-08T04:13:11.071Z,1.10
2023-11-08T04:15:38.538Z,1.30
2023-11-08T04:18:06.053Z,0.60
2023-11-08T04:20:33.401Z,0.93
2023-11-08T04:23:00.727Z,1.13
2023-11-08T04:25:28.017Z,1.20
2023-11-08T04:27:55.203Z,1.58
2023-11-08T04:30:22.925Z,1.05
2023-11-08T04:32:50.343Z,1.40
2023-11-08T04:35:18.422Z,1.17
2023-11-08T04:37:45.924Z,1.27
2023-11-08T04:40:13.301Z,1.23
2023-11-08T04:42:41.393Z,1.10
2023-11-08T04:45:09.491Z,1.10
2023-11-08T04:47:38.777Z,1.50
2023-11-08T04:50:06.478Z,1.52
2023-11-08T04:52:34.888Z,1.15
2023-11-08T04:55:02.135Z,1.25
2023-11-08T04:57:29.417Z,1.15
2023-11-08T04:59:56.921Z,1.30
2023-11-08T05:02:24.093Z,0.88
2023-11-08T05:04:51.349Z,1.00
2023-11-08T05:07:21.726Z,1.13
2023-11-08T05:09:49.921Z,1.33
2023-11-08T05:12:18.955Z,1.20
2023-11-08T05:14:46.913Z,1.30
2023-11-08T05:17:17.675Z,1.08
2023-11-08T05:19:45.723Z,2.00
2023-11-08T05:22:14.143Z,1.40
2023-11-08T05:24:41.780Z,1.50
2023-11-08T05:27:09.301Z,1.60
2023-11-08T05:29:37.734Z,1.15
2023-11-08T05:32:05.172Z,1.45
2023-11-08T05:34:32.622Z,1.10
2023-11-08T05:37:00.195Z,1.40
2023-11-08T05:39:28.889Z,1.25
2023-11-08T05:41:56.108Z,1.50
2023-11-08T05:44:23.332Z,1.60
2023-11-08T05:46:50.815Z,1.30
2023-11-08T05:49:18.577Z,1.92
2023-11-08T05:51:45.829Z,1.30
2023-11-08T05:54:13.095Z,0.90
2023-11-08T05:56:40.287Z,1.42
2023-11-08T05:59:07.665Z,1.40
2023-11-08T06:01:35.063Z,1.20
2023-11-08T06:04:02.768Z,1.13
2023-11-08T06:06:30.111Z,1.40
2023-11-08T06:08:57.281Z,2.17
2023-11-08T06:11:24.446Z,1.30
2023-11-08T06:13:51.629Z,2.20
2023-11-08T06:16:18.787Z,2.33
2023-11-08T06:18:46.144Z,1.88
2023-11-08T06:21:14.901Z,2.15
2023-11-08T06:23:44.985Z,1.55
2023-11-08T06:26:16.386Z,1.80
2023-11-08T06:28:43.946Z,2.53
2023-11-08T06:31:11.152Z,1.75
2023-11-08T06:33:41.663Z,1.67
2023-11-08T06:36:09.030Z,2.40
2023-11-08T06:38:36.226Z,2.17
2023-11-08T06:41:03.398Z,0.98
2023-11-08T06:43:30.548Z,2.13
2023-11-08T06:45:57.840Z,2.67
2023-11-08T06:48:26.457Z,2.08
2023-11-08T06:50:53.766Z,2.10
2023-11-08T06:53:21.139Z,2.05
2023-11-08T06:55:48.426Z,1.50
2023-11-08T06:58:16.435Z,2.15
2023-11-08T07:00:44.299Z,1.70
2023-11-08T07:03:11.693Z,1.60
2023-11-08T07:05:39.629Z,1.60
2023-11-08T07:08:09.237Z,1.92
2023-11-08T07:10:36.948Z,2.38
2023-11-08T07:13:04.340Z,1.77
2023-11-08T07:15:31.957Z,1.80
2023-11-08T07:17:59.276Z,2.17
2023-11-08T07:20:26.522Z,1.83
2023-11-08T07:22:53.734Z,1.70
2023-11-08T07:25:21.073Z,2.30
2023-11-08T07:27:48.331Z,2.88
2023-11-08T07:30:18.222Z,1.65
2023-11-08T07:32:49.162Z,2.53
2023-11-08T07:35:16.557Z,1.85
2023-11-08T07:37:43.666Z,2.20
2023-11-08T07:40:14.544Z,2.88
2023-11-08T07:42:42.577Z,1.73
2023-11-08T07:45:10.762Z,1.95
2023-11-08T07:47:37.915Z,1.40
2023-11-08T07:50:07.593Z,1.55
2023-11-08T07:52:35.070Z,1.45
2023-11-08T07:55:02.546Z,2.58
2023-11-08T07:57:29.833Z,2.05
2023-11-08T07:59:57.031Z,1.92
2023-11-08T08:02:24.363Z,1.58
2023-11-08T08:04:51.694Z,2.33
2023-11-08T08:07:18.898Z,1.60
2023-11-08T08:09:46.255Z,1.55
2023-11-08T08:12:14.185Z,2.55
2023-11-08T08:14:41.718Z,1.55
2023-11-08T08:17:09.695Z,1.30
2023-11-08T08:19:37.288Z,1.50
2023-11-08T08:22:05.460Z,2.15
2023-11-08T08:24:33.010Z,1.40
2023-11-08T08:27:19.653Z,1.08
2023-11-08T08:30:51.620Z,1.10
2023-11-08T08:33:29.548Z,1.58
2023-11-08T08:36:00.167Z,1.25
2023-11-08T08:38:27.562Z,1.50
2023-11-08T08:40:54.726Z,1.17
2023-11-08T08:43:22.106Z,1.23
2023-11-08T08:45:49.543Z,1.02
2023-11-08T08:48:17.021Z,1.02
2023-11-08T08:50:44.602Z,1.20
2023-11-08T08:53:11.755Z,1.05
2023-11-08T08:55:42.041Z,1.10
2023-11-08T08:58:11.820Z,1.40
2023-11-08T09:00:39.114Z,1.92
2023-11-08T09:03:08.221Z,1.60
2023-11-08T09:05:35.484Z,0.82
2023-11-08T09:08:03.757Z,1.02
2023-11-08T09:10:30.969Z,1.05
2023-11-08T09:12:58.657Z,0.73
2023-11-08T09:15:25.989Z,0.80
2023-11-08T09:17:53.284Z,1.83
2023-11-08T09:20:20.459Z,1.30
2023-11-08T09:22:48.731Z,1.20
2023-11-08T09:25:19.117Z,1.30
2023-11-08T09:27:46.553Z,1.27
2023-11-08T09:30:14.272Z,1.08
2023-11-08T09:32:42.101Z,1.85
2023-11-08T09:35:10.246Z,1.08
2023-11-08T09:37:38.017Z,0.80
2023-11-08T09:40:10.736Z,0.82
2023-11-08T09:42:39.816Z,0.70
2023-11-08T09:45:13.700Z,0.55
2023-11-08T09:47:43.355Z,0.68
2023-11-08T09:50:11.813Z,0.88
2023-11-08T09:52:40.131Z,0.47
2023-11-08T09:55:07.969Z,0.57
2023-11-08T09:57:37.361Z,0.60
2023-11-08T10:00:07.613Z,0.50
2023-11-08T10:02:42.996Z,0.30
2023-11-08T10:05:11.377Z,0.32
2023-11-08T10:07:41.005Z,0.73
2023-11-08T10:10:08.850Z,0.63
2023-11-08T10:12:53.812Z,0.80
2023-11-08T10:15:23.542Z,0.80
2023-11-08T10:19:31.570Z,1.00
2023-11-08T10:20:39.028Z,0.60
2023-11-08T10:23:31.327Z,0.88
2023-11-08T10:26:23.316Z,0.60
2023-11-08T10:29:01.262Z,0.68
2023-11-08T10:31:35.312Z,0.68
2023-11-08T10:34:04.839Z,1.00
2023-11-08T10:36:34.704Z,1.42
2023-11-08T10:39:05.370Z,0.70
2023-11-08T10:41:32.902Z,0.88
2023-11-08T10:44:07.721Z,0.77
2023-11-08T10:46:36.136Z,0.57
2023-11-08T10:49:06.094Z,0.82
2023-11-08T10:51:37.252Z,1.13
2023-11-08T10:54:07.933Z,1.25
2023-11-08T10:56:36.717Z,1.40
2023-11-08T10:59:06.367Z,0.85
2023-11-08T11:01:38.230Z,0.95
2023-11-08T11:04:08.378Z,1.00
2023-11-08T11:06:42.306Z,1.13
2023-11-08T11:09:14.884Z,0.60
2023-11-08T11:11:46.659Z,0.80
2023-11-08T11:14:37.903Z,0.50
2023-11-08T11:17:27.936Z,0.55
2023-11-08T11:19:58.859Z,0.47
2023-11-08T11:22:27.047Z,0.50
2023-11-08T11:24:55.186Z,0.70
2023-11-08T11:27:35.321Z,0.52
2023-11-08T11:30:29.843Z,0.50
2023-11-08T11:33:00.363Z,0.63
2023-11-08T11:35:30.942Z,0.63
2023-11-08T11:38:07.271Z,0.43
2023-11-08T11:40:46.501Z,0.68
2023-11-08T11:43:32.042Z,0.68
2023-11-08T11:46:00.404Z,1.27
2023-11-08T11:48:34.848Z,0.82
2023-11-08T11:51:03.408Z,0.93
2023-11-08T11:53:33.294Z,0.90
2023-11-08T11:56:10.399Z,0.50
2023-11-08T11:58:37.994Z,0.52
2023-11-08T12:01:08.292Z,0.73
2023-11-08T12:03:38.151Z,0.80
2023-11-08T12:06:06.807Z,0.32
2023-11-08T12:08:34.799Z,0.50
2023-11-08T12:11:12.521Z,0.50
2023-11-08T12:13:55.937Z,0.43
2023-11-08T12:16:23.770Z,0.40
2023-11-08T12:18:53.204Z,0.60
2023-11-08T12:21:20.938Z,0.50
2023-11-08T12:23:50.374Z,0.55
2023-11-08T12:26:18.362Z,0.50
2023-11-08T12:28:46.988Z,0.50
2023-11-08T12:31:19.289Z,0.63
2023-11-08T12:33:47.177Z,0.30
2023-11-08T12:36:15.351Z,0.52
2023-11-08T12:38:42.573Z,0.47
2023-11-08T12:41:09.912Z,0.75
2023-11-08T12:43:59.003Z,0.57
2023-11-08T12:46:37.899Z,0.50
2023-11-08T12:49:17.733Z,0.60
2023-11-08T12:51:45.944Z,1.25
2023-11-08T12:54:15.436Z,0.50
2023-11-08T12:56:43.234Z,2.60
2023-11-08T12:59:16.927Z,1.75
2023-11-08T13:01:45.740Z,0.85
2023-11-08T13:04:13.832Z,1.40
2023-11-08T13:06:41.112Z,1.13
2023-11-08T13:09:09.488Z,1.13
2023-11-08T13:11:36.846Z,0.65
2023-11-08T13:14:06.274Z,0.70
2023-11-08T13:16:34.350Z,0.88
2023-11-08T13:19:02.089Z,0.60
2023-11-08T13:21:29.518Z,0.52
2023-11-08T13:24:03.211Z,0.95
2023-11-08T13:26:35.165Z,0.52
2023-11-08T13:29:03.627Z,0.70
2023-11-08T13:31:30.857Z,1.15
2023-11-08T13:33:58.160Z,1.15
2023-11-08T13:36:29.061Z,0.90
2023-11-08T13:38:57.695Z,0.50
2023-11-08T13:41:28.595Z,0.55
2023-11-08T13:43:55.714Z,0.80
2023-11-08T13:46:24.761Z,0.60
2023-11-08T13:48:52.166Z,0.30
2023-11-08T13:51:19.449Z,0.30
2023-11-08T13:53:52.855Z,0.50
2023-11-08T13:56:20.061Z,0.68
2023-11-08T13:58:49.120Z,1.90
2023-11-08T14:01:18.487Z,0.45
2023-11-08T14:03:46.120Z,0.43
2023-11-08T14:06:17.318Z,0.40
2023-11-08T14:08:44.609Z,0.55
2023-11-08T14:11:12.351Z,0.20
2023-11-08T14:13:41.356Z,1.10
2023-11-08T14:16:09.220Z,0.75
2023-11-08T14:18:39.731Z,0.30
2023-11-08T14:21:06.981Z,0.40
2023-11-08T14:23:34.157Z,0.55
2023-11-08T14:26:01.603Z,0.50
2023-11-08T14:28:28.854Z,0.90
2023-11-08T14:30:56.314Z,0.85
2023-11-08T14:33:25.872Z,0.60
2023-11-08T14:35:53.289Z,4.50
2023-11-08T14:38:20.548Z,3.47
2023-11-08T14:40:48.183Z,1.48
2023-11-08T14:43:15.344Z,1.30
2023-11-08T14:45:42.611Z,1.27
2023-11-08T14:48:10.188Z,1.02
2023-11-08T14:50:37.759Z,0.90
2023-11-08T14:53:04.894Z,0.88
2023-11-08T14:55:32.205Z,0.68
2023-11-08T14:57:59.553Z,1.38
2023-11-08T15:00:28.351Z,1.08
2023-11-08T15:02:57.319Z,0.90
2023-11-08T15:05:24.593Z,1.10
2023-11-08T15:09:47.354Z,1.60
2023-11-08T15:10:39.449Z,1.17
2023-11-08T15:13:06.682Z,1.65
2023-11-08T15:15:34.269Z,1.58
2023-11-08T15:18:01.565Z,1.83
2023-11-08T15:20:28.694Z,2.03
2023-11-08T15:23:00.215Z,1.52
2023-11-08T15:25:30.392Z,2.88
2023-11-08T15:27:58.430Z,2.05
2023-11-08T15:30:25.690Z,1.63
2023-11-08T15:32:52.939Z,1.00
2023-11-08T15:35:20.160Z,1.30
2023-11-08T15:37:47.333Z,0.90
2023-11-08T15:40:17.451Z,5.45
2023-11-08T15:42:44.699Z,37.28
2023-11-08T15:45:12.798Z,23.40
2023-11-08T15:47:43.167Z,8.90
2023-11-08T15:50:10.790Z,5.80
2023-11-08T15:52:38.144Z,2.92
2023-11-08T15:55:06.687Z,4.05
2023-11-08T15:57:34.165Z,3.00
2023-11-08T16:00:08.713Z,2.38
2023-11-08T16:02:36.414Z,1.77
2023-11-08T16:05:06.021Z,1.95
2023-11-08T16:07:33.639Z,2.15
2023-11-08T16:10:01.002Z,3.22
2023-11-08T16:12:29.107Z,2.17
2023-11-08T16:14:58.654Z,2.22
2023-11-08T16:17:26.334Z,2.80
2023-11-08T16:19:53.970Z,2.85
2023-11-08T16:22:21.814Z,2.78
2023-11-08T16:24:49.049Z,2.95
2023-11-08T16:27:19.121Z,3.17
2023-11-08T16:29:52.345Z,2.40
2023-11-08T16:32:35.760Z,2.03
2023-11-08T16:35:11.209Z,1.90
2023-11-08T16:37:42.211Z,2.05
2023-11-08T16:40:11.588Z,2.17
2023-11-08T16:42:40.032Z,1.50
2023-11-08T16:45:08.664Z,1.88
2023-11-08T16:47:36.364Z,1.98
2023-11-08T16:50:04.168Z,2.03
2023-11-08T16:52:32.315Z,2.05
2023-11-08T16:54:59.538Z,2.05
2023-11-08T16:57:27.980Z,1.50
2023-11-08T16:59:55.304Z,1.90
2023-11-08T17:02:22.532Z,1.83
2023-11-08T17:04:49.968Z,1.90
2023-11-08T17:07:17.451Z,1.88
2023-11-08T17:09:44.726Z,1.85
2023-11-08T17:12:12.271Z,1.95
2023-11-08T17:14:39.574Z,2.05
2023-11-08T17:17:06.868Z,1.98
2023-11-08T17:19:34.235Z,2.22
2023-11-08T17:22:01.649Z,2.33
2023-11-08T17:24:28.895Z,1.98
2023-11-08T17:26:56.014Z,4.70
2023-11-08T17:29:23.235Z,6.43
2023-11-08T17:31:52.269Z,2.65
2023-11-08T17:34:19.863Z,2.50
2023-11-08T17:36:48.567Z,2.63
2023-11-08T17:39:15.883Z,3.60
2023-11-08T17:41:43.104Z,2.95
2023-11-08T17:44:10.355Z,2.90
2023-11-08T17:46:38.703Z,2.38
2023-11-08T17:49:06.415Z,4.70
2023-11-08T17:51:33.771Z,7.63
2023-11-08T17:54:01.149Z,7.63
2023-11-08T17:56:28.418Z,4.25
2023-11-08T17:58:55.722Z,5.20
2023-11-08T18:01:23.499Z,4.13
2023-11-08T18:03:50.939Z,6.13
2023-11-08T18:06:18.568Z,3.53
2023-11-08T18:08:46.678Z,4.13
2023-11-08T18:11:15.272Z,4.47
2023-11-08T18:13:48.045Z,7.78
2023-11-08T18:16:15.754Z,6.18
2023-11-08T18:18:45.347Z,9.63
2023-11-08T18:21:13.817Z,5.43
2023-11-08T18:23:41.059Z,5.38
2023-11-08T18:26:08.352Z,5.40
2023-11-08T18:28:35.511Z,3.72
2023-11-08T18:31:02.873Z,3.97
2023-11-08T18:33:30.827Z,7.35
2023-11-08T18:35:57.991Z,7.07
2023-11-08T18:38:25.184Z,6.47
2023-11-08T18:40:55.447Z,6.55
2023-11-08T18:43:27.323Z,10.38
2023-11-08T18:45:55.293Z,5.15
2023-11-08T18:48:28.415Z,6.15
2023-11-08T18:50:55.992Z,5.72
2023-11-08T18:53:25.086Z,4.85
2023-11-08T18:55:52.537Z,4.80
2023-11-08T18:58:24.345Z,3.95
2023-11-08T19:00:54.702Z,3.80
2023-11-08T19:03:22.097Z,3.03
2023-11-08T19:05:50.379Z,3.20
2023-11-08T19:08:18.062Z,3.53
2023-11-08T19:10:45.319Z,3.40
2023-11-08T19:13:12.979Z,3.63
2023-11-08T19:15:40.449Z,3.03
2023-11-08T19:18:08.849Z,3.92
2023-11-08T19:20:36.196Z,2.83
2023-11-08T19:23:08.437Z,3.58
2023-11-08T19:25:43.648Z,5.40
2023-11-08T19:28:10.946Z,4.60
2023-11-08T19:30:38.467Z,4.85
2023-11-08T19:33:07.193Z,4.55
2023-11-08T19:35:34.458Z,5.82
2023-11-08T19:38:01.780Z,5.47
2023-11-08T19:40:28.979Z,6.93
2023-11-08T19:42:57.197Z,7.13
2023-11-08T19:45:24.391Z,8.25
2023-11-08T19:47:51.657Z,6.45
2023-11-08T19:50:19.094Z,8.05
2023-11-08T19:52:48.397Z,6.88
2023-11-08T19:55:16.506Z,6.75
2023-11-08T19:57:44.053Z,6.20
2023-11-08T20:00:12.255Z,6.28
2023-11-08T20:02:40.670Z,6.00
2023-11-08T20:05:09.352Z,5.55
2023-11-08T20:07:36.562Z,6.28
2023-11-08T20:10:04.508Z,6.60
2023-11-08T20:12:31.830Z,6.38
2023-11-08T20:14:59.240Z,6.68
2023-11-08T20:17:27.045Z,8.20
2023-11-08T20:19:57.798Z,8.85
2023-11-08T20:22:25.064Z,7.53
2023-11-08T20:24:53.310Z,7.38
2023-11-08T20:27:21.411Z,6.47
2023-11-08T20:29:49.614Z,6.07
2023-11-08T20:32:18.150Z,7.13
2023-11-08T20:34:45.812Z,17.90
2023-11-08T20:37:14.389Z,9.25
2023-11-08T20:39:41.805Z,7.53
2023-11-08T20:42:09.096Z,8.85
2023-11-08T20:44:36.308Z,6.22
2023-11-08T20:47:03.621Z,6.13
2023-11-08T20:49:30.974Z,7.40
2023-11-08T20:51:59.238Z,6.60
2023-11-08T20:54:27.877Z,5.65
2023-11-08T20:56:55.096Z,6.88
2023-11-08T20:59:23.097Z,6.72
2023-11-08T21:01:51.824Z,5.30
2023-11-08T21:04:19.723Z,5.63
2023-11-08T21:06:47.670Z,6.85
2023-11-08T21:09:17.211Z,5.57
2023-11-08T21:11:47.614Z,5.72
2023-11-08T21:14:14.885Z,4.80
2023-11-08T21:16:42.131Z,5.63
2023-11-08T21:19:10.323Z,5.03
2023-11-08T21:21:37.502Z,4.72
2023-11-08T21:24:05.272Z,5.40
2023-11-08T21:26:32.394Z,4.90
2023-11-08T21:28:59.642Z,4.00
2023-11-08T21:31:26.822Z,4.15
2023-11-08T21:33:54.194Z,5.60
2023-11-08T21:36:22.763Z,4.40
2023-11-08T21:38:49.955Z,3.53
2023-11-08T21:41:18.012Z,4.50
2023-11-08T21:43:45.381Z,4.15
2023-11-08T21:46:12.658Z,4.50
2023-11-08T21:48:40.742Z,3.92
2023-11-08T21:51:08.141Z,3.92
2023-11-08T21:53:35.388Z,4.40
2023-11-08T21:56:02.633Z,4.72
2023-11-08T21:58:29.942Z,5.38
2023-11-08T22:00:57.187Z,3.90
2023-11-08T22:03:24.536Z,4.60
2023-11-08T22:05:52.091Z,5.20
2023-11-08T22:08:19.702Z,4.38
2023-11-08T22:10:47.034Z,5.35
2023-11-08T22:13:17.313Z,4.68
2023-11-08T22:15:44.862Z,4.78
2023-11-08T22:18:12.133Z,3.90
2023-11-08T22:20:39.337Z,4.75
2023-11-08T22:23:06.571Z,4.75
2023-11-08T22:25:33.764Z,4.25
2023-11-08T22:28:01.500Z,5.88
2023-11-08T22:30:28.829Z,4.30
2023-11-08T22:32:56.044Z,4.20
2023-11-08T22:35:23.294Z,4.03
2023-11-08T22:37:50.471Z,4.40
2023-11-08T22:40:18.301Z,3.90
2023-11-08T22:42:45.806Z,4.18
2023-11-08T22:45:13.034Z,3.22
2023-11-08T22:47:43.008Z,3.85
2023-11-08T22:50:12.074Z,3.92
2023-11-08T22:52:40.025Z,4.03
2023-11-08T22:55:11.069Z,4.07
2023-11-08T22:57:38.333Z,3.20
2023-11-08T23:00:11.044Z,3.60
2023-11-08T23:02:40.559Z,4.68
2023-11-08T23:05:10.401Z,3.33
2023-11-08T23:07:37.733Z,3.35
2023-11-08T23:10:05.714Z,3.05
2023-11-08T23:12:33.090Z,3.53
2023-11-08T23:15:07.516Z,4.13
2023-11-08T23:17:43.501Z,3.17
2023-11-08T23:20:16.123Z,2.88
2023-11-08T23:22:44.572Z,3.67
2023-11-08T23:25:11.998Z,3.90
2023-11-08T23:27:41.547Z,3.30
2023-11-08T23:30:09.091Z,4.78
2023-11-08T23:32:40.088Z,3.67
2023-11-08T23:35:13.122Z,3.65
2023-11-08T23:37:43.920Z,3.00
2023-11-08T23:40:11.864Z,3.38
2023-11-08T23:42:39.309Z,2.83
2023-11-08T23:45:07.271Z,2.88
2023-11-08T23:47:34.666Z,2.92
2023-11-08T23:50:01.815Z,3.97
2023-11-08T23:52:29.691Z,3.17
2023-11-08T23:55:01.933Z,3.35
2023-11-08T23:57:29.358Z,3.83
2023-11-08T23:59:59.381Z,2.45
